createdAt,value
2018-04-28T00:00:41.019Z,10.70
2018-04-28T00:05:42.589Z,10.60
2018-04-28T00:10:44.111Z,10.60
2018-04-28T00:15:45.651Z,10.60
2018-04-28T00:20:47.216Z,10.30
2018-04-28T00:41:42.229Z,10.40
2018-04-28T00:46:59.427Z,10.30
2018-04-28T00:52:01.727Z,10.30
2018-04-28T01:13:16.744Z,10.40
2018-04-28T01:18:23.163Z,10.60
2018-04-28T01:39:40.005Z,11.20
2018-04-28T01:44:52.994Z,11.10
2018-04-28T01:49:57.440Z,11.00
2018-04-28T01:55:03.827Z,11.20
2018-04-28T02:00:17.188Z,11.20
2018-04-28T02:05:27.445Z,11.10
2018-04-28T02:10:38.036Z,11.00
2018-04-28T02:15:44.199Z,10.90
2018-04-28T02:36:58.443Z,11.10
2018-04-28T02:42:07.692Z,11.10
2018-04-28T02:47:16.368Z,11.00
2018-04-28T02:52:36.425Z,10.70
2018-04-28T03:13:40.371Z,10.20
2018-04-28T03:18:41.920Z,10.00
2018-04-28T03:23:55.217Z,9.90
2018-04-28T03:29:04.762Z,9.90
2018-04-28T03:34:15.145Z,9.80
2018-04-28T03:39:28.576Z,9.80
2018-04-28T03:44:31.835Z,9.80
2018-04-28T03:49:33.410Z,9.60
2018-04-28T03:54:36.935Z,9.60
2018-04-28T04:16:00.939Z,9.50
2018-04-28T04:36:58.998Z,9.70
2018-04-28T04:58:31.355Z,11.00
2018-04-28T05:09:43.945Z,14.10
2018-04-28T05:36:38.147Z,19.10
2018-04-28T05:41:49.140Z,19.50
2018-04-28T05:47:19.523Z,19.80
2018-04-28T05:52:42.916Z,20.40
2018-04-28T06:14:34.374Z,20.70
2018-04-28T06:19:50.209Z,21.50
2018-04-28T06:24:51.951Z,21.90
2018-04-28T06:29:53.508Z,21.80
2018-04-28T06:34:55.111Z,21.90
2018-04-28T06:39:56.692Z,22.20
2018-04-28T06:44:58.289Z,22.50
2018-04-28T06:49:59.929Z,22.60
2018-04-28T06:55:01.476Z,22.70
2018-04-28T07:00:03.023Z,22.00
2018-04-28T07:05:04.651Z,22.10
2018-04-28T07:10:06.981Z,22.50
2018-04-28T07:15:08.668Z,22.50
2018-04-28T07:20:10.288Z,21.40
2018-04-28T07:25:12.629Z,21.50
2018-04-28T07:30:14.298Z,21.50
2018-04-28T07:35:15.874Z,20.90
2018-04-28T07:40:17.620Z,21.10
2018-04-28T07:45:19.160Z,21.50
2018-04-28T07:50:20.725Z,20.50
2018-04-28T07:55:22.288Z,20.30
2018-04-28T08:00:24.700Z,20.80
2018-04-28T08:05:26.224Z,20.70
2018-04-28T08:10:28.506Z,22.10
2018-04-28T08:15:30.803Z,22.20
2018-04-28T08:20:33.088Z,21.90
2018-04-28T08:25:35.397Z,22.00
2018-04-28T08:30:37.099Z,22.00
2018-04-28T08:35:38.782Z,21.90
2018-04-28T08:40:48.211Z,21.50
2018-04-28T08:45:49.853Z,21.40
2018-04-28T08:50:52.104Z,21.40
2018-04-28T08:55:53.776Z,21.40
2018-04-28T09:01:02.373Z,21.10
2018-04-28T09:06:03.937Z,20.80
2018-04-28T09:11:05.499Z,20.50
2018-04-28T09:16:07.274Z,20.70
2018-04-28T09:21:08.814Z,20.30
2018-04-28T09:26:11.215Z,21.10
2018-04-28T09:31:12.685Z,21.10
2018-04-28T09:36:14.339Z,21.90
2018-04-28T09:41:15.940Z,22.50
2018-04-28T09:46:17.579Z,22.50
2018-04-28T09:51:19.120Z,21.80
2018-04-28T09:56:20.781Z,20.80
2018-04-28T10:01:22.401Z,20.20
2018-04-28T10:06:24.060Z,19.90
2018-04-28T10:11:25.590Z,20.10
2018-04-28T10:16:27.148Z,20.00
2018-04-28T10:21:28.708Z,20.40
2018-04-28T10:26:30.258Z,19.60
2018-04-28T10:31:31.800Z,19.60
2018-04-28T10:36:34.135Z,20.50
2018-04-28T10:41:35.756Z,20.50
2018-04-28T10:46:38.052Z,20.90
2018-04-28T10:51:39.607Z,20.90
2018-04-28T10:56:41.908Z,21.30
2018-04-28T11:01:43.464Z,21.20
2018-04-28T11:06:45.827Z,22.00
2018-04-28T11:11:47.461Z,21.90
2018-04-28T11:16:49.013Z,22.10
2018-04-28T11:21:50.588Z,22.10
2018-04-28T11:26:52.133Z,21.50
2018-04-28T11:31:53.737Z,21.10
2018-04-28T11:36:55.291Z,21.40
2018-04-28T11:41:56.888Z,21.80
2018-04-28T11:46:58.493Z,21.60
2018-04-28T11:52:00.802Z,21.30
2018-04-28T11:57:02.316Z,21.20
2018-04-28T12:02:03.832Z,21.80
2018-04-28T12:07:05.365Z,22.50
2018-04-28T12:12:06.975Z,22.30
2018-04-28T12:17:08.587Z,21.70
2018-04-28T12:22:10.152Z,21.80
2018-04-28T12:27:11.755Z,22.00
2018-04-28T12:32:14.076Z,21.50
2018-04-28T12:37:15.606Z,21.50
2018-04-28T12:42:17.905Z,21.50
2018-04-28T12:47:20.419Z,21.60
2018-04-28T12:52:21.986Z,21.50
2018-04-28T12:57:23.559Z,21.60
2018-04-28T13:02:25.079Z,22.30
2018-04-28T13:07:26.658Z,22.60
2018-04-28T13:12:28.988Z,22.30
2018-04-28T13:17:30.546Z,22.20
2018-04-28T13:22:32.750Z,22.30
2018-04-28T13:27:34.387Z,22.30
2018-04-28T13:32:35.930Z,22.10
2018-04-28T13:37:38.348Z,21.30
2018-04-28T13:42:39.911Z,21.20
2018-04-28T13:47:41.498Z,21.20
2018-04-28T13:52:43.022Z,21.60
2018-04-28T13:57:44.488Z,21.90
2018-04-28T14:02:46.853Z,22.00
2018-04-28T14:07:48.403Z,21.90
2018-04-28T14:12:50.019Z,22.20
2018-04-28T14:17:52.313Z,22.50
2018-04-28T14:22:54.656Z,22.30
2018-04-28T14:27:56.260Z,22.20
2018-04-28T14:32:58.518Z,21.50
2018-04-28T14:38:00.059Z,21.40
2018-04-28T14:43:02.256Z,21.30
2018-04-28T14:48:03.828Z,21.50
2018-04-28T14:53:05.353Z,21.50
2018-04-28T14:58:06.991Z,21.40
2018-04-28T15:03:08.630Z,21.10
2018-04-28T15:08:10.366Z,20.80
2018-04-28T15:13:11.978Z,20.40
2018-04-28T15:18:13.531Z,20.10
2018-04-28T15:23:15.247Z,20.10
2018-04-28T15:28:16.839Z,20.00
2018-04-28T15:33:18.480Z,19.90
2018-04-28T15:38:20.044Z,19.70
2018-04-28T15:43:21.611Z,19.60
2018-04-28T15:48:23.219Z,19.40
2018-04-28T15:53:24.840Z,19.40
2018-04-28T15:58:26.425Z,19.60
2018-04-28T16:03:27.996Z,19.70
2018-04-28T16:08:29.593Z,19.80
2018-04-28T16:13:31.142Z,19.70
2018-04-28T16:18:34.039Z,19.70
2018-04-28T16:23:36.310Z,19.70
2018-04-28T16:28:37.924Z,19.70
2018-04-28T16:33:40.450Z,19.50
2018-04-28T16:38:42.009Z,19.40
2018-04-28T16:43:43.564Z,19.40
2018-04-28T16:48:45.410Z,19.20
2018-04-28T16:53:47.726Z,18.70
2018-04-28T16:58:49.334Z,18.60
2018-04-28T17:03:50.887Z,18.50
2018-04-28T17:08:52.427Z,18.40
2018-04-28T17:13:54.185Z,18.30
2018-04-28T17:18:56.493Z,18.30
2018-04-28T17:23:58.243Z,18.30
2018-04-28T17:28:59.833Z,18.30
2018-04-28T17:34:01.599Z,18.30
2018-04-28T17:39:03.202Z,18.30
2018-04-28T17:44:04.826Z,18.20
2018-04-28T17:49:06.485Z,18.20
2018-04-28T17:54:08.051Z,18.10
2018-04-28T17:59:09.629Z,18.20
2018-04-28T18:04:12.157Z,18.00
2018-04-28T18:09:13.673Z,17.90
2018-04-28T18:14:15.985Z,17.20
2018-04-28T18:19:17.622Z,17.20
2018-04-28T18:24:19.207Z,16.60
2018-04-28T18:29:20.927Z,16.10
2018-04-28T18:34:22.505Z,16.00
2018-04-28T18:39:24.080Z,15.80
2018-04-28T18:44:25.710Z,15.60
2018-04-28T18:49:27.383Z,15.40
2018-04-28T18:54:28.961Z,15.30
2018-04-28T18:59:30.541Z,15.20
2018-04-28T19:04:32.282Z,15.30
2018-04-28T19:09:33.841Z,15.30
2018-04-28T19:14:35.462Z,15.20
2018-04-28T19:19:37.244Z,15.20
2018-04-28T19:24:39.041Z,15.10
2018-04-28T19:29:41.514Z,15.00
2018-04-28T19:34:43.080Z,14.90
2018-04-28T19:39:44.611Z,14.90
2018-04-28T19:44:46.385Z,15.00
2018-04-28T19:49:47.969Z,14.90
2018-04-28T19:54:49.623Z,14.90
2018-04-28T19:59:51.238Z,14.90
2018-04-28T20:04:52.729Z,14.70
2018-04-28T20:09:55.183Z,14.60
2018-04-28T20:14:56.749Z,14.50
2018-04-28T20:19:58.234Z,14.60
2018-04-28T20:25:19.054Z,14.50
2018-04-28T20:30:20.635Z,14.40
2018-04-28T20:35:23.011Z,14.60
2018-04-28T20:40:24.642Z,14.50
2018-04-28T20:45:26.221Z,14.60
2018-04-28T20:50:27.935Z,14.50
2018-04-28T20:55:30.256Z,14.40
2018-04-28T21:00:32.042Z,14.30
2018-04-28T21:05:33.616Z,14.30
2018-04-28T21:10:35.237Z,14.20
2018-04-28T21:15:37.528Z,14.10
2018-04-28T21:20:39.831Z,14.00
2018-04-28T21:25:41.467Z,13.90
2018-04-28T21:30:43.677Z,14.00
2018-04-28T21:35:45.300Z,13.90
2018-04-28T21:40:46.925Z,14.00
2018-04-28T21:45:48.444Z,14.10
2018-04-28T21:50:50.055Z,14.00
2018-04-28T21:55:51.653Z,13.90
2018-04-28T22:00:53.259Z,13.90
2018-04-28T22:05:54.858Z,13.70
2018-04-28T22:10:56.407Z,13.50
2018-04-28T22:15:58.649Z,13.10
2018-04-28T22:21:00.224Z,13.00
2018-04-28T22:26:01.875Z,13.10
2018-04-28T22:31:03.587Z,13.20
2018-04-28T22:36:05.089Z,13.10
2018-04-28T22:41:06.610Z,13.00
2018-04-28T22:46:08.153Z,13.10
2018-04-28T22:51:11.310Z,13.10
2018-04-28T22:56:12.871Z,13.10
2018-04-28T23:01:14.415Z,12.80
2018-04-28T23:06:15.959Z,12.50
2018-04-28T23:11:17.519Z,12.50
2018-04-28T23:16:19.098Z,12.50
2018-04-28T23:21:20.718Z,12.60
2018-04-28T23:26:22.245Z,12.70
2018-04-28T23:31:23.755Z,12.60
2018-04-28T23:36:25.295Z,12.40
2018-04-28T23:41:26.862Z,12.20
2018-04-28T23:46:28.424Z,12.00
2018-04-28T23:51:29.996Z,11.90
2018-04-28T23:56:31.605Z,11.80
